createdAt,value
2018-12-13T00:03:22.231Z,25.83
2018-12-13T00:07:27.214Z,24.83
2018-12-13T00:11:32.253Z,25.00
2018-12-13T00:15:37.147Z,24.43
2018-12-13T00:19:42.087Z,22.70
2018-12-13T00:23:47.035Z,28.40
2018-12-13T00:27:52.052Z,30.90
2018-12-13T00:31:57.091Z,25.97
2018-12-13T00:36:02.077Z,25.97
2018-12-13T00:40:07.080Z,26.67
2018-12-13T00:44:12.051Z,27.03
2018-12-13T00:48:17.427Z,28.33
2018-12-13T00:52:22.383Z,28.50
2018-12-13T00:56:27.293Z,27.60
2018-12-13T01:00:32.341Z,24.20
2018-12-13T01:04:37.227Z,26.80
2018-12-13T01:08:42.182Z,25.07
2018-12-13T01:12:47.203Z,25.53
2018-12-13T01:16:52.140Z,24.17
2018-12-13T01:20:57.115Z,27.93
2018-12-13T01:25:02.076Z,27.63
2018-12-13T01:29:07.019Z,23.73
2018-12-13T01:33:12.020Z,25.77
2018-12-13T01:37:16.988Z,24.53
2018-12-13T01:41:21.972Z,27.27
2018-12-13T01:45:26.890Z,25.27
2018-12-13T01:49:31.935Z,27.43
2018-12-13T01:53:36.868Z,32.80
2018-12-13T01:57:41.844Z,28.77
2018-12-13T02:01:46.820Z,24.73
2018-12-13T02:05:51.814Z,26.20
2018-12-13T02:09:56.812Z,26.37
2018-12-13T02:14:01.864Z,27.73
2018-12-13T02:18:07.156Z,26.97
2018-12-13T02:22:12.154Z,23.33
2018-12-13T02:26:17.101Z,24.57
2018-12-13T02:30:22.399Z,25.47
2018-12-13T02:34:27.621Z,24.70
2018-12-13T02:38:32.680Z,24.43
2018-12-13T02:42:37.641Z,26.93
2018-12-13T02:46:42.734Z,28.73
2018-12-13T02:50:47.685Z,25.93
2018-12-13T02:54:52.679Z,25.17
2018-12-13T02:58:57.667Z,28.53
2018-12-13T03:03:02.672Z,28.83
2018-12-13T03:07:13.636Z,26.57
2018-12-13T03:11:15.052Z,27.30
2018-12-13T03:15:20.057Z,24.27
2018-12-13T03:19:25.068Z,23.93
2018-12-13T03:23:30.018Z,22.90
2018-12-13T03:27:53.837Z,27.10
2018-12-13T03:31:58.841Z,32.77
2018-12-13T03:36:03.786Z,30.33
2018-12-13T03:40:08.676Z,25.63
2018-12-13T03:44:13.708Z,30.27
2018-12-13T03:48:18.639Z,27.10
2018-12-13T03:52:30.865Z,27.63
2018-12-13T03:56:35.770Z,25.60
2018-12-13T04:00:40.802Z,30.40
2018-12-13T04:04:45.839Z,29.43
2018-12-13T04:08:50.867Z,24.87
2018-12-13T04:12:55.826Z,30.77
2018-12-13T04:17:00.860Z,37.67
2018-12-13T04:21:05.766Z,35.57
2018-12-13T04:25:10.740Z,32.47
2018-12-13T04:29:15.676Z,32.70
2018-12-13T04:33:20.630Z,35.33
2018-12-13T04:37:25.562Z,35.40
2018-12-13T04:41:30.544Z,34.07
2018-12-13T04:45:35.596Z,36.63
2018-12-13T04:49:40.609Z,39.17
2018-12-13T04:53:45.595Z,32.80
2018-12-13T04:57:50.591Z,35.63
2018-12-13T05:01:55.546Z,38.10
2018-12-13T05:06:00.552Z,40.87
2018-12-13T05:10:05.974Z,40.50
2018-12-13T05:14:10.938Z,40.93
2018-12-13T05:18:15.996Z,40.70
2018-12-13T05:22:20.945Z,43.30
2018-12-13T05:26:25.976Z,39.20
2018-12-13T05:30:30.920Z,41.13
2018-12-13T05:34:36.009Z,40.23
2018-12-13T05:38:40.950Z,43.33
2018-12-13T05:42:45.947Z,41.93
2018-12-13T05:46:50.914Z,45.47
2018-12-13T05:50:55.901Z,43.10
2018-12-13T05:55:00.966Z,43.63
2018-12-13T05:59:05.932Z,37.27
2018-12-13T06:03:10.811Z,42.03
2018-12-13T06:07:15.776Z,42.60
2018-12-13T06:11:20.876Z,39.87
2018-12-13T06:15:25.849Z,39.50
2018-12-13T06:19:30.982Z,39.83
2018-12-13T06:23:35.892Z,39.33
2018-12-13T06:27:40.858Z,44.53
2018-12-13T06:31:46.172Z,38.53
2018-12-13T06:35:51.165Z,37.90
2018-12-13T06:39:56.093Z,41.07
2018-12-13T06:44:01.065Z,39.73
2018-12-13T06:48:06.038Z,31.37
2018-12-13T06:52:11.061Z,38.20
2018-12-13T06:56:15.946Z,46.27
2018-12-13T07:00:20.857Z,42.70
2018-12-13T07:04:25.845Z,40.80
2018-12-13T07:08:30.797Z,40.50
2018-12-13T07:12:35.781Z,38.53
2018-12-13T07:16:40.733Z,43.17
2018-12-13T07:20:45.732Z,44.13
2018-12-13T07:24:50.649Z,48.70
2018-12-13T07:28:55.626Z,42.53
2018-12-13T07:33:00.706Z,38.83
2018-12-13T07:37:05.742Z,41.63
2018-12-13T07:41:10.663Z,43.20
2018-12-13T07:45:15.611Z,41.43
2018-12-13T07:49:20.551Z,43.20
2018-12-13T07:53:25.498Z,35.77
2018-12-13T07:57:30.474Z,40.70
2018-12-13T08:01:35.478Z,40.87
2018-12-13T08:05:40.791Z,39.00
2018-12-13T08:09:45.779Z,40.37
2018-12-13T08:13:50.802Z,38.90
2018-12-13T08:17:55.741Z,37.27
2018-12-13T08:22:00.750Z,45.93
2018-12-13T08:26:05.726Z,38.67
2018-12-13T08:30:10.930Z,40.47
2018-12-13T08:34:16.048Z,36.47
2018-12-13T08:38:27.097Z,35.70
2018-12-13T08:42:27.895Z,34.17
2018-12-13T08:46:36.449Z,37.57
2018-12-13T08:50:39.793Z,36.33
2018-12-13T08:54:44.755Z,38.87
2018-12-13T08:58:49.746Z,39.53
2018-12-13T09:02:54.686Z,35.50
2018-12-13T09:06:59.704Z,38.60
2018-12-13T09:11:04.786Z,36.67
2018-12-13T09:15:09.733Z,37.20
2018-12-13T09:19:14.749Z,36.60
2018-12-13T09:23:19.714Z,36.53
2018-12-13T09:27:24.717Z,35.70
2018-12-13T09:31:30.055Z,33.40
2018-12-13T09:35:35.007Z,32.70
2018-12-13T09:39:39.916Z,32.40
2018-12-13T09:43:45.554Z,33.87
2018-12-13T09:47:51.794Z,32.50
2018-12-13T09:51:56.766Z,36.07
2018-12-13T10:00:12.795Z,37.40
2018-12-13T10:04:17.761Z,38.43
2018-12-13T10:08:22.704Z,33.17
2018-12-13T10:12:27.737Z,32.03
2018-12-13T10:16:32.744Z,35.73
2018-12-13T10:20:37.690Z,33.97
2018-12-13T10:24:42.640Z,32.23
2018-12-13T10:28:47.603Z,30.67
2018-12-13T10:32:52.601Z,32.00
2018-12-13T10:36:57.534Z,35.03
2018-12-13T10:41:02.597Z,33.40
2018-12-13T10:45:07.704Z,32.70
2018-12-13T10:49:12.675Z,33.13
2018-12-13T10:53:17.744Z,39.20
2018-12-13T10:57:22.668Z,37.27
2018-12-13T11:01:46.281Z,40.07
2018-12-13T11:05:51.137Z,42.30
2018-12-13T11:09:56.122Z,36.00
2018-12-13T11:14:01.039Z,38.63
2018-12-13T11:18:06.099Z,37.93
2018-12-13T11:22:11.035Z,40.77
2018-12-13T11:26:16.049Z,45.90
2018-12-13T11:30:39.891Z,37.60
2018-12-13T11:34:44.906Z,38.53
2018-12-13T11:38:49.826Z,39.10
2018-12-13T11:42:54.883Z,42.23
2018-12-13T11:46:59.902Z,36.60
2018-12-13T11:51:04.888Z,39.93
2018-12-13T11:55:47.546Z,46.93
2018-12-13T11:59:52.519Z,43.97
2018-12-13T12:03:57.552Z,47.77
2018-12-13T12:08:02.507Z,46.30
2018-12-13T12:12:07.539Z,50.70
2018-12-13T12:16:12.735Z,49.10
2018-12-13T12:20:18.096Z,51.10
2018-12-13T12:28:48.889Z,40.40
2018-12-13T12:32:53.832Z,39.83
2018-12-13T12:36:58.698Z,39.93
2018-12-13T12:41:03.729Z,32.10
2018-12-13T12:45:48.090Z,29.97
2018-12-13T12:49:53.157Z,27.63
2018-12-13T12:53:58.042Z,28.27
2018-12-13T12:58:21.855Z,28.03
2018-12-13T13:06:38.814Z,20.00
2018-12-13T13:10:43.754Z,23.27
2018-12-13T13:14:48.633Z,18.23
2018-12-13T13:18:53.978Z,21.07
2018-12-13T13:22:58.900Z,19.73
2018-12-13T13:27:03.945Z,18.90
2018-12-13T13:31:09.000Z,24.27
2018-12-13T13:35:14.050Z,23.37
2018-12-13T13:39:19.373Z,23.57
2018-12-13T13:43:24.313Z,19.93
2018-12-13T13:47:29.314Z,24.03
2018-12-13T13:51:34.290Z,25.23
2018-12-13T13:55:39.712Z,28.10
2018-12-13T13:59:44.734Z,20.77
2018-12-13T14:03:50.230Z,22.83
2018-12-13T14:07:55.238Z,21.57
2018-12-13T14:12:00.122Z,20.80
2018-12-13T14:16:05.086Z,21.67
2018-12-13T14:20:10.140Z,22.33
2018-12-13T14:24:15.120Z,22.73
2018-12-13T14:28:20.096Z,22.10
2018-12-13T14:32:25.059Z,21.27
2018-12-13T14:36:30.084Z,24.03
2018-12-13T14:40:35.006Z,18.53
2018-12-13T14:44:40.009Z,23.87
2018-12-13T14:48:45.318Z,23.20
2018-12-13T14:52:50.228Z,24.13
2018-12-13T14:56:55.166Z,21.57
2018-12-13T15:01:00.174Z,20.77
2018-12-13T15:05:05.220Z,24.33
2018-12-13T15:09:10.347Z,22.03
2018-12-13T15:13:15.415Z,22.77
2018-12-13T15:17:20.356Z,18.73
2018-12-13T15:21:25.297Z,19.90
2018-12-13T15:25:30.189Z,23.40
2018-12-13T15:29:35.599Z,18.50
2018-12-13T15:33:40.599Z,19.60
2018-12-13T15:37:45.501Z,19.23
2018-12-13T15:41:50.448Z,18.60
2018-12-13T15:45:55.425Z,21.53
2018-12-13T15:50:00.398Z,24.47
2018-12-13T15:54:05.324Z,26.57
2018-12-13T15:58:10.439Z,23.43
2018-12-13T16:02:15.366Z,25.73
2018-12-13T16:06:20.322Z,25.30
2018-12-13T16:10:25.365Z,24.97
2018-12-13T16:14:30.507Z,28.20
2018-12-13T16:18:35.552Z,25.37
2018-12-13T16:22:40.508Z,25.40
2018-12-13T16:26:45.423Z,22.37
2018-12-13T16:30:50.398Z,21.03
2018-12-13T16:34:55.408Z,24.07
2018-12-13T16:39:00.382Z,24.70
2018-12-13T16:43:05.331Z,23.70
2018-12-13T16:47:10.330Z,22.30
2018-12-13T16:51:15.269Z,20.97
2018-12-13T16:55:20.337Z,20.33
2018-12-13T16:59:25.389Z,25.07
2018-12-13T17:03:49.276Z,27.43
2018-12-13T17:07:54.288Z,25.43
2018-12-13T17:11:59.232Z,22.77
2018-12-13T17:16:04.153Z,22.67
2018-12-13T17:20:09.027Z,25.17
2018-12-13T17:24:13.992Z,22.00
2018-12-13T17:28:18.914Z,14.97
2018-12-13T17:32:23.884Z,17.00
2018-12-13T17:36:28.868Z,19.20
2018-12-13T17:40:33.774Z,18.73
2018-12-13T17:44:38.698Z,17.57
2018-12-13T17:48:44.118Z,17.83
2018-12-13T17:52:49.202Z,19.90
2018-12-13T17:56:54.209Z,20.10
2018-12-13T18:00:59.202Z,20.63
2018-12-13T18:05:04.156Z,23.87
2018-12-13T18:09:09.669Z,22.50
2018-12-13T18:13:14.619Z,19.67
2018-12-13T18:17:19.601Z,17.30
2018-12-13T18:21:24.566Z,20.83
2018-12-13T18:25:29.566Z,22.93
2018-12-13T18:29:34.841Z,19.20
2018-12-13T18:33:40.064Z,24.07
2018-12-13T18:37:45.080Z,25.73
2018-12-13T18:41:49.998Z,20.63
2018-12-13T18:45:54.952Z,20.97
2018-12-13T18:49:59.913Z,18.87
2018-12-13T18:54:04.861Z,16.37
2018-12-13T18:58:09.807Z,17.97
2018-12-13T19:02:14.767Z,18.30
2018-12-13T19:06:19.645Z,18.10
2018-12-13T19:10:24.636Z,20.20
2018-12-13T19:14:29.616Z,18.20
2018-12-13T19:18:34.552Z,18.07
2018-12-13T19:22:39.538Z,17.73
2018-12-13T19:26:44.938Z,17.53
2018-12-13T19:30:49.917Z,22.97
2018-12-13T19:35:00.165Z,21.10
2018-12-13T19:39:01.851Z,16.17
2018-12-13T19:43:06.803Z,18.93
2018-12-13T19:47:11.755Z,17.87
2018-12-13T19:51:16.669Z,19.93
2018-12-13T19:55:21.602Z,20.73
2018-12-13T19:59:26.464Z,19.90
2018-12-13T20:03:31.403Z,24.10
2018-12-13T20:07:36.463Z,23.33
2018-12-13T20:11:41.578Z,23.90
2018-12-13T20:15:46.691Z,23.00
2018-12-13T20:20:00.065Z,25.33
2018-12-13T20:28:53.258Z,27.63
2018-12-13T20:32:58.337Z,23.70
2018-12-13T20:37:03.414Z,25.00
2018-12-13T20:41:08.458Z,24.53
2018-12-13T20:45:13.400Z,23.93
2018-12-13T20:49:18.350Z,25.43
2018-12-13T20:53:23.342Z,27.20
2018-12-13T20:57:28.311Z,22.63
2018-12-13T21:01:33.234Z,26.07
2018-12-13T21:05:38.191Z,23.53
2018-12-13T21:09:43.229Z,27.37
2018-12-13T21:13:48.211Z,26.53
2018-12-13T21:17:53.173Z,28.10
2018-12-13T21:21:58.523Z,24.17
2018-12-13T21:26:03.490Z,29.10
2018-12-13T21:30:08.828Z,29.20
2018-12-13T21:34:36.734Z,26.73
2018-12-13T21:38:41.725Z,26.53
2018-12-13T21:42:46.750Z,25.40
2018-12-13T21:46:51.721Z,24.50
2018-12-13T21:50:56.744Z,29.30
2018-12-13T21:55:01.668Z,24.43
2018-12-13T21:59:06.665Z,28.50
2018-12-13T22:03:11.715Z,28.90
2018-12-13T22:07:16.669Z,30.90
2018-12-13T22:11:21.713Z,29.30
2018-12-13T22:15:26.656Z,36.50
2018-12-13T22:19:31.636Z,27.57
2018-12-13T22:23:36.611Z,22.53
2018-12-13T22:27:41.556Z,26.13
2018-12-13T22:35:59.283Z,22.30
2018-12-13T22:40:04.314Z,18.73
2018-12-13T22:44:09.230Z,24.30
2018-12-13T22:48:14.236Z,23.00
2018-12-13T22:52:19.271Z,22.50
2018-12-13T22:56:24.224Z,23.97
2018-12-13T23:00:29.121Z,23.57
2018-12-13T23:04:33.997Z,21.30
2018-12-13T23:08:38.942Z,26.97
2018-12-13T23:12:43.941Z,24.80
2018-12-13T23:16:48.899Z,23.20
2018-12-13T23:20:53.888Z,27.50
2018-12-13T23:24:58.800Z,22.53
2018-12-13T23:29:03.835Z,30.47
2018-12-13T23:33:08.825Z,28.93
2018-12-13T23:37:13.749Z,32.33
2018-12-13T23:41:18.701Z,25.73
2018-12-13T23:45:23.664Z,28.00
2018-12-13T23:49:28.630Z,24.27
2018-12-13T23:57:59.382Z,26.27
